createdAt,value
2019-03-22T00:07:19.018Z,101571.98
2019-03-22T00:12:06.818Z,101567.83
2019-03-22T00:16:12.910Z,101567.20
2019-03-22T00:20:24.897Z,101575.81
2019-03-22T00:24:36.546Z,101571.73
2019-03-22T00:29:08.034Z,101567.48
2019-03-22T00:33:22.605Z,101561.16
2019-03-22T00:37:32.074Z,101551.97
2019-03-22T00:41:41.277Z,101561.14
2019-03-22T00:46:08.670Z,101556.00
2019-03-22T00:50:16.110Z,101547.53
2019-03-22T00:54:43.205Z,101554.16
2019-03-22T00:58:49.032Z,101555.72
2019-03-22T01:12:06.221Z,101548.61
2019-03-22T01:16:17.067Z,101539.80
2019-03-22T01:20:27.511Z,101550.25
2019-03-22T01:24:37.199Z,101545.02
2019-03-22T01:28:44.226Z,101551.86
2019-03-22T01:32:58.197Z,101547.47
2019-03-22T01:37:07.189Z,101552.70
2019-03-22T01:41:16.436Z,101541.19
2019-03-22T01:45:45.698Z,101546.66
2019-03-22T01:49:53.114Z,101547.66
2019-03-22T01:54:04.263Z,101547.41
2019-03-22T01:58:09.766Z,101548.63
2019-03-22T02:02:16.644Z,101540.06
2019-03-22T02:06:24.991Z,101543.00
2019-03-22T02:10:33.084Z,101542.27
2019-03-22T02:14:48.928Z,101549.75
2019-03-22T02:19:24.323Z,101547.80
2019-03-22T02:23:30.002Z,101545.02
2019-03-22T02:27:35.495Z,101533.02
2019-03-22T02:31:44.598Z,101534.64
2019-03-22T02:35:50.710Z,101529.02
2019-03-22T02:39:58.591Z,101534.77
2019-03-22T02:44:05.228Z,101534.63
2019-03-22T02:48:13.438Z,101531.52
2019-03-22T02:52:19.170Z,101532.82
2019-03-22T02:56:27.467Z,101526.72
2019-03-22T03:00:34.288Z,101526.03
2019-03-22T03:04:49.941Z,101524.17
2019-03-22T03:08:57.597Z,101528.08
2019-03-22T03:13:04.354Z,101531.34
2019-03-22T03:17:12.429Z,101529.36
2019-03-22T03:21:18.052Z,101530.98
2019-03-22T03:25:26.298Z,101539.69
2019-03-22T03:29:55.120Z,101535.55
2019-03-22T03:34:03.183Z,101535.69
2019-03-22T03:38:11.095Z,101535.33
2019-03-22T03:42:16.242Z,101533.28
2019-03-22T03:46:21.578Z,101532.03
2019-03-22T03:50:26.537Z,101534.12
2019-03-22T03:54:31.484Z,101531.55
2019-03-22T03:58:51.257Z,101529.59
2019-03-22T04:02:46.737Z,101531.19
2019-03-22T04:06:51.978Z,101524.30
2019-03-22T04:10:57.151Z,101526.39
2019-03-22T04:15:02.840Z,101526.30
2019-03-22T04:19:12.417Z,101529.09
2019-03-22T04:23:17.568Z,101535.69
2019-03-22T04:27:25.697Z,101531.78
2019-03-22T04:31:52.514Z,101533.88
2019-03-22T04:35:57.951Z,101537.13
2019-03-22T04:40:02.833Z,101538.02
2019-03-22T04:44:07.986Z,101534.20
2019-03-22T04:48:25.166Z,101533.55
2019-03-22T04:52:30.352Z,101535.97
2019-03-22T04:56:39.690Z,101546.48
2019-03-22T05:00:54.746Z,101553.69
2019-03-22T05:05:00.004Z,101557.64
2019-03-22T05:09:08.703Z,101559.06
2019-03-22T05:13:16.198Z,101564.22
2019-03-22T05:17:22.079Z,101569.11
2019-03-22T05:21:28.772Z,101575.30
2019-03-22T05:25:35.379Z,101581.91
2019-03-22T05:29:47.250Z,101581.17
2019-03-22T05:33:52.559Z,101579.08
2019-03-22T05:38:00.594Z,101593.27
2019-03-22T05:42:05.780Z,101594.77
2019-03-22T05:46:11.074Z,101586.41
2019-03-22T05:50:16.117Z,101583.25
2019-03-22T05:54:21.171Z,101578.41
2019-03-22T05:58:26.387Z,101583.41
2019-03-22T06:02:41.056Z,101583.59
2019-03-22T06:06:46.236Z,101585.23
2019-03-22T06:10:51.826Z,101582.06
2019-03-22T06:14:56.772Z,101584.25
2019-03-22T06:19:05.097Z,101588.81
2019-03-22T06:23:10.222Z,101592.26
2019-03-22T06:27:15.652Z,101593.61
2019-03-22T06:31:23.106Z,101592.81
2019-03-22T06:35:28.344Z,101583.30
2019-03-22T06:39:33.824Z,101593.85
2019-03-22T06:43:42.060Z,101587.33
2019-03-22T06:47:47.560Z,101586.72
2019-03-22T06:51:53.017Z,101590.09
2019-03-22T06:55:58.643Z,101589.53
2019-03-22T07:00:06.733Z,101585.92
2019-03-22T07:04:13.884Z,101594.58
2019-03-22T07:08:19.084Z,101587.58
2019-03-22T07:12:26.212Z,101575.35
2019-03-22T07:16:31.521Z,101584.55
2019-03-22T07:20:37.502Z,101586.03
2019-03-22T07:24:42.998Z,101581.22
2019-03-22T07:28:48.158Z,101585.36
2019-03-22T07:32:53.480Z,101588.78
2019-03-22T07:36:58.720Z,101580.21
2019-03-22T07:41:04.005Z,101576.08
2019-03-22T07:45:10.025Z,101583.70
2019-03-22T07:49:15.083Z,101574.85
2019-03-22T07:53:20.816Z,101580.37
2019-03-22T07:57:26.694Z,101585.31
2019-03-22T08:01:32.424Z,101583.03
2019-03-22T08:05:50.666Z,101571.86
2019-03-22T08:09:51.169Z,101564.80
2019-03-22T08:13:55.348Z,101565.16
2019-03-22T08:18:06.826Z,101557.81
2019-03-22T08:22:12.385Z,101550.02
2019-03-22T08:26:17.821Z,101548.97
2019-03-22T08:30:23.207Z,101544.84
2019-03-22T08:34:30.648Z,101550.33
2019-03-22T08:38:44.895Z,101542.06
2019-03-22T08:42:51.365Z,101539.41
2019-03-22T08:46:56.784Z,101540.19
2019-03-22T08:51:03.464Z,101537.63
2019-03-22T08:55:09.067Z,101538.91
2019-03-22T08:59:14.711Z,101548.39
2019-03-22T09:03:20.424Z,101543.13
2019-03-22T09:07:28.825Z,101536.73
2019-03-22T09:11:46.349Z,101539.08
2019-03-22T09:15:51.899Z,101538.42
2019-03-22T09:19:56.891Z,101537.05
2019-03-22T09:24:02.529Z,101538.30
2019-03-22T09:28:10.180Z,101536.19
2019-03-22T09:32:14.871Z,101529.13
2019-03-22T09:36:20.437Z,101528.25
2019-03-22T09:40:33.369Z,101526.70
2019-03-22T09:44:45.271Z,101529.33
2019-03-22T09:48:54.281Z,101515.69
2019-03-22T09:53:06.901Z,101533.58
2019-03-22T09:57:10.089Z,101538.73
2019-03-22T10:06:30.359Z,101517.53
2019-03-22T10:10:44.895Z,101511.08
2019-03-22T10:15:11.447Z,101515.84
2019-03-22T10:19:16.805Z,101497.09
2019-03-22T10:23:32.686Z,101494.25
2019-03-22T10:28:35.958Z,101496.63
2019-03-22T10:33:22.054Z,101492.01
2019-03-22T10:42:58.647Z,101484.87
2019-03-22T10:47:57.124Z,101494.97
2019-03-22T10:52:18.217Z,101478.45
2019-03-22T10:56:25.141Z,101479.99
2019-03-22T11:01:13.248Z,101473.94
2019-03-22T11:05:18.919Z,101467.60
2019-03-22T11:09:30.271Z,101465.12
2019-03-22T11:13:35.600Z,101462.05
2019-03-22T11:17:41.570Z,101447.53
2019-03-22T11:21:48.002Z,101447.09
2019-03-22T11:26:00.268Z,101442.02
2019-03-22T11:30:13.355Z,101433.89
2019-03-22T11:34:38.313Z,101436.32
2019-03-22T11:38:43.449Z,101439.17
2019-03-22T11:43:25.682Z,101435.77
2019-03-22T11:48:00.580Z,101431.44
2019-03-22T11:52:06.815Z,101433.76
2019-03-22T11:56:22.071Z,101425.02
2019-03-22T12:00:28.246Z,101422.84
2019-03-22T12:04:34.043Z,101415.38
2019-03-22T12:08:39.508Z,101407.62
2019-03-22T12:17:43.049Z,101380.08
2019-03-22T12:21:48.300Z,101369.98
2019-03-22T12:25:53.949Z,101357.45
2019-03-22T12:29:59.265Z,101348.95
2019-03-22T12:34:04.617Z,101344.56
2019-03-22T12:38:09.691Z,101336.53
2019-03-22T12:42:14.677Z,101335.19
2019-03-22T12:46:19.665Z,101324.63
2019-03-22T12:50:25.413Z,101317.58
2019-03-22T12:54:32.165Z,101321.61
2019-03-22T12:58:37.765Z,101319.02
2019-03-22T13:02:43.217Z,101306.66
2019-03-22T13:06:48.371Z,101316.83
2019-03-22T13:10:59.214Z,101311.55
2019-03-22T13:15:05.028Z,101311.57
2019-03-22T13:19:09.976Z,101303.17
2019-03-22T13:23:15.148Z,101300.98
2019-03-22T13:27:20.444Z,101303.21
2019-03-22T13:31:26.114Z,101300.62
2019-03-22T13:35:31.354Z,101297.53
2019-03-22T13:39:36.243Z,101296.69
2019-03-22T13:43:41.164Z,101291.85
2019-03-22T13:47:46.462Z,101286.11
2019-03-22T13:51:54.961Z,101288.70
2019-03-22T13:56:00.376Z,101287.80
2019-03-22T14:00:08.460Z,101284.25
2019-03-22T14:10:24.017Z,101261.70
2019-03-22T14:14:57.677Z,101248.00
2019-03-22T14:24:12.859Z,101232.07
2019-03-22T14:28:46.894Z,101228.51
2019-03-22T14:32:51.987Z,101236.49
2019-03-22T14:36:57.203Z,101232.07
2019-03-22T14:41:02.785Z,101222.75
2019-03-22T14:45:08.242Z,101219.22
2019-03-22T14:49:13.189Z,101213.01
2019-03-22T14:53:18.190Z,101218.76
2019-03-22T14:57:23.288Z,101207.70
2019-03-22T15:01:28.673Z,101214.34
2019-03-22T15:05:33.671Z,101201.47
2019-03-22T15:09:38.529Z,101194.39
2019-03-22T15:13:52.531Z,101193.94
2019-03-22T15:18:15.402Z,101193.05
2019-03-22T15:22:42.603Z,101184.20
2019-03-22T15:27:12.675Z,101176.20
2019-03-22T15:31:54.486Z,101183.28
2019-03-22T15:36:46.017Z,101187.72
2019-03-22T15:40:51.943Z,101181.53
2019-03-22T15:44:57.354Z,101180.65
2019-03-22T15:49:02.602Z,101178.00
2019-03-22T15:53:07.855Z,101170.90
2019-03-22T15:57:13.101Z,101160.69
2019-03-22T16:01:18.352Z,101158.48
2019-03-22T16:05:23.491Z,101150.50
2019-03-22T16:09:28.837Z,101148.28
2019-03-22T16:13:35.507Z,101149.61
2019-03-22T16:17:40.883Z,101140.30
2019-03-22T16:21:46.111Z,101150.06
2019-03-22T16:25:50.911Z,101145.63
2019-03-22T16:29:56.086Z,101150.49
2019-03-22T16:34:01.561Z,101156.72
2019-03-22T16:38:07.581Z,101156.26
2019-03-22T16:42:12.988Z,101150.52
2019-03-22T16:46:17.980Z,101154.04
2019-03-22T16:50:27.079Z,101158.47
2019-03-22T17:05:20.312Z,101154.48
2019-03-22T17:09:27.362Z,101157.09
2019-03-22T17:14:07.506Z,101148.66
2019-03-22T17:18:13.592Z,101156.63
2019-03-22T17:27:49.365Z,101161.02
2019-03-22T17:41:11.409Z,101149.46
2019-03-22T18:30:20.130Z,101172.67
2019-03-22T18:35:35.183Z,101180.52
2019-03-22T18:44:42.658Z,101183.32
2019-03-22T19:04:32.557Z,101177.10
2019-03-22T19:09:24.583Z,101175.21
2019-03-22T19:42:57.328Z,101177.74
2019-03-22T20:03:19.537Z,101194.04
2019-03-22T20:12:28.153Z,101182.55
2019-03-22T20:17:19.655Z,101192.39
2019-03-22T20:25:57.411Z,101175.54
2019-03-22T20:30:03.083Z,101175.54
2019-03-22T20:34:07.849Z,101175.58
2019-03-22T20:38:12.814Z,101173.75
2019-03-22T20:42:17.901Z,101173.75
2019-03-22T20:46:22.870Z,101172.73
2019-03-22T20:50:35.420Z,101175.26
2019-03-22T20:54:34.294Z,101174.31
2019-03-22T20:58:39.044Z,101178.67
2019-03-22T21:02:44.157Z,101174.97
2019-03-22T21:06:48.987Z,101174.97
2019-03-22T21:10:54.153Z,101172.98
2019-03-22T21:14:58.932Z,101172.98
2019-03-22T21:19:03.743Z,101181.74
2019-03-22T21:23:08.549Z,101185.98
2019-03-22T21:27:15.844Z,101185.98
2019-03-22T21:31:19.812Z,101184.15
2019-03-22T21:35:24.859Z,101189.34
2019-03-22T21:39:29.624Z,101183.63
2019-03-22T21:43:34.583Z,101178.84
2019-03-22T21:47:39.890Z,101173.92
2019-03-22T21:51:44.598Z,101170.73
2019-03-22T21:55:49.785Z,101168.02
2019-03-22T21:59:54.534Z,101178.41
2019-03-22T22:03:59.324Z,101179.00
2019-03-22T22:08:04.115Z,101183.95
2019-03-22T22:12:08.985Z,101175.30
2019-03-22T22:16:14.157Z,101181.68
2019-03-22T22:20:28.400Z,101191.25
2019-03-22T22:24:25.434Z,101188.61
2019-03-22T22:28:30.220Z,101188.57
2019-03-22T22:32:34.976Z,101189.89
2019-03-22T22:36:39.758Z,101184.00
2019-03-22T22:40:44.673Z,101185.53
2019-03-22T22:44:49.438Z,101179.95
2019-03-22T22:48:54.808Z,101186.44
2019-03-22T22:52:59.601Z,101181.56
2019-03-22T22:57:04.817Z,101176.51
2019-03-22T23:01:09.945Z,101184.61
2019-03-22T23:05:15.020Z,101183.59
2019-03-22T23:09:19.812Z,101187.05
2019-03-22T23:13:24.555Z,101187.05
2019-03-22T23:17:29.382Z,101189.63
2019-03-22T23:21:34.316Z,101186.39
2019-03-22T23:25:39.182Z,101190.77
2019-03-22T23:29:44.032Z,101189.41
2019-03-22T23:33:48.843Z,101199.39
2019-03-22T23:37:53.566Z,101197.89
2019-03-22T23:41:58.399Z,101196.37
2019-03-22T23:46:03.209Z,101195.03
2019-03-22T23:50:08.263Z,101195.60
2019-03-22T23:54:13.069Z,101191.56
2019-03-22T23:58:18.116Z,101194.23
